sensor_id;sensor_type;location;lat;lon;timestamp;temperature;humidity
48806;DHT22;34625;47.176;27.548;2023-04-01T00:00:48;18.40;49.50
48806;DHT22;34625;47.176;27.548;2023-04-01T00:03:14;18.30;49.50
48806;DHT22;34625;47.176;27.548;2023-04-01T00:05:40;18.40;49.40
48806;DHT22;34625;47.176;27.548;2023-04-01T00:08:06;18.30;49.40
48806;DHT22;34625;47.176;27.548;2023-04-01T00:10:32;18.40;49.30
48806;DHT22;34625;47.176;27.548;2023-04-01T00:12:58;18.40;49.30
48806;DHT22;34625;47.176;27.548;2023-04-01T00:15:24;18.40;49.30
48806;DHT22;34625;47.176;27.548;2023-04-01T00:17:50;18.10;49.30
48806;DHT22;34625;47.176;27.548;2023-04-01T00:20:15;18.30;49.40
48806;DHT22;34625;47.176;27.548;2023-04-01T00:22:41;18.30;49.40
48806;DHT22;34625;47.176;27.548;2023-04-01T00:25:07;18.30;49.40
48806;DHT22;34625;47.176;27.548;2023-04-01T00:27:34;18.30;49.50
48806;DHT22;34625;47.176;27.548;2023-04-01T00:29:59;18.30;49.50
48806;DHT22;34625;47.176;27.548;2023-04-01T00:32:25;18.20;49.40
48806;DHT22;34625;47.176;27.548;2023-04-01T00:34:52;18.30;49.40
48806;DHT22;34625;47.176;27.548;2023-04-01T00:37:19;18.40;49.40
48806;DHT22;34625;47.176;27.548;2023-04-01T00:39:45;18.30;49.40
48806;DHT22;34625;47.176;27.548;2023-04-01T00:42:11;18.40;49.40
48806;DHT22;34625;47.176;27.548;2023-04-01T00:44:38;18.40;49.40
48806;DHT22;34625;47.176;27.548;2023-04-01T00:47:04;18.30;49.40
48806;DHT22;34625;47.176;27.548;2023-04-01T00:49:31;18.40;49.40
48806;DHT22;34625;47.176;27.548;2023-04-01T00:51:58;18.30;49.40
48806;DHT22;34625;47.176;27.548;2023-04-01T00:54:25;18.40;49.50
48806;DHT22;34625;47.176;27.548;2023-04-01T00:59:26;18.30;49.50
48806;DHT22;34625;47.176;27.548;2023-04-01T01:01:53;18.40;49.50
48806;DHT22;34625;47.176;27.548;2023-04-01T01:04:26;18.20;49.50
48806;DHT22;34625;47.176;27.548;2023-04-01T01:16:58;18.20;49.70
48806;DHT22;34625;47.176;27.548;2023-04-01T01:22:24;18.10;49.70
48806;DHT22;34625;47.176;27.548;2023-04-01T01:24:54;18.10;49.80
48806;DHT22;34625;47.176;27.548;2023-04-01T01:27:21;18.10;49.90
48806;DHT22;34625;47.176;27.548;2023-04-01T01:29:58;18.10;50.00
48806;DHT22;34625;47.176;27.548;2023-04-01T01:35:15;18.10;49.80
48806;DHT22;34625;47.176;27.548;2023-04-01T01:37:42;18.10;49.80
48806;DHT22;34625;47.176;27.548;2023-04-01T01:40:10;18.10;49.80
48806;DHT22;34625;47.176;27.548;2023-04-01T01:42:38;18.10;49.80
48806;DHT22;34625;47.176;27.548;2023-04-01T01:45:05;18.10;49.80
48806;DHT22;34625;47.176;27.548;2023-04-01T01:47:32;18.10;49.90
48806;DHT22;34625;47.176;27.548;2023-04-01T01:49:59;18.10;50.00
48806;DHT22;34625;47.176;27.548;2023-04-01T01:52:27;17.90;49.90
48806;DHT22;34625;47.176;27.548;2023-04-01T01:54:54;18.00;49.90
48806;DHT22;34625;47.176;27.548;2023-04-01T01:57:28;18.00;49.90
48806;DHT22;34625;47.176;27.548;2023-04-01T02:00:05;18.00;50.00
48806;DHT22;34625;47.176;27.548;2023-04-01T02:02:41;18.00;50.00
48806;DHT22;34625;47.176;27.548;2023-04-01T02:05:09;18.00;50.00
48806;DHT22;34625;47.176;27.548;2023-04-01T02:07:36;18.00;49.90
48806;DHT22;34625;47.176;27.548;2023-04-01T02:10:03;18.10;50.00
48806;DHT22;34625;47.176;27.548;2023-04-01T02:12:29;18.10;50.00
48806;DHT22;34625;47.176;27.548;2023-04-01T02:15:00;17.80;49.70
48806;DHT22;34625;47.176;27.548;2023-04-01T02:17:29;18.10;49.80
48806;DHT22;34625;47.176;27.548;2023-04-01T02:20:06;18.20;49.70
48806;DHT22;34625;47.176;27.548;2023-04-01T02:22:34;18.10;49.70
48806;DHT22;34625;47.176;27.548;2023-04-01T02:25:02;18.10;49.70
48806;DHT22;34625;47.176;27.548;2023-04-01T02:27:30;18.10;49.70
48806;DHT22;34625;47.176;27.548;2023-04-01T02:29:56;18.00;49.70
48806;DHT22;34625;47.176;27.548;2023-04-01T02:32:23;18.10;49.80
48806;DHT22;34625;47.176;27.548;2023-04-01T02:34:50;18.20;49.80
48806;DHT22;34625;47.176;27.548;2023-04-01T02:37:16;18.10;49.90
48806;DHT22;34625;47.176;27.548;2023-04-01T02:39:43;18.10;49.90
48806;DHT22;34625;47.176;27.548;2023-04-01T02:42:08;18.00;49.80
48806;DHT22;34625;47.176;27.548;2023-04-01T02:44:34;18.10;50.00
48806;DHT22;34625;47.176;27.548;2023-04-01T02:47:00;18.10;49.90
48806;DHT22;34625;47.176;27.548;2023-04-01T02:49:26;18.00;49.80
48806;DHT22;34625;47.176;27.548;2023-04-01T02:51:52;17.90;49.80
48806;DHT22;34625;47.176;27.548;2023-04-01T02:54:19;18.00;49.90
48806;DHT22;34625;47.176;27.548;2023-04-01T02:56:45;17.90;49.90
48806;DHT22;34625;47.176;27.548;2023-04-01T02:59:11;18.00;50.00
48806;DHT22;34625;47.176;27.548;2023-04-01T03:01:38;18.00;50.00
48806;DHT22;34625;47.176;27.548;2023-04-01T03:04:04;18.00;50.00
48806;DHT22;34625;47.176;27.548;2023-04-01T03:06:30;18.00;50.00
48806;DHT22;34625;47.176;27.548;2023-04-01T03:08:56;18.00;49.90
48806;DHT22;34625;47.176;27.548;2023-04-01T03:11:22;18.00;49.90
48806;DHT22;34625;47.176;27.548;2023-04-01T03:13:48;18.00;49.80
48806;DHT22;34625;47.176;27.548;2023-04-01T03:16:14;18.00;49.80
48806;DHT22;34625;47.176;27.548;2023-04-01T03:18:40;18.00;49.90
48806;DHT22;34625;47.176;27.548;2023-04-01T03:21:16;18.00;49.90
48806;DHT22;34625;47.176;27.548;2023-04-01T03:23:43;17.90;50.00
48806;DHT22;34625;47.176;27.548;2023-04-01T03:26:09;18.00;50.00
48806;DHT22;34625;47.176;27.548;2023-04-01T03:28:35;17.90;50.00
48806;DHT22;34625;47.176;27.548;2023-04-01T03:31:01;17.90;50.10
48806;DHT22;34625;47.176;27.548;2023-04-01T03:33:28;17.90;50.10
48806;DHT22;34625;47.176;27.548;2023-04-01T03:35:54;17.90;50.10
48806;DHT22;34625;47.176;27.548;2023-04-01T03:38:20;18.00;50.00
48806;DHT22;34625;47.176;27.548;2023-04-01T03:40:46;18.00;50.00
48806;DHT22;34625;47.176;27.548;2023-04-01T03:43:12;18.10;50.00
48806;DHT22;34625;47.176;27.548;2023-04-01T03:45:45;18.10;49.90
48806;DHT22;34625;47.176;27.548;2023-04-01T03:48:12;18.10;49.70
48806;DHT22;34625;47.176;27.548;2023-04-01T03:50:38;18.20;49.60
48806;DHT22;34625;47.176;27.548;2023-04-01T03:53:05;18.10;49.50
48806;DHT22;34625;47.176;27.548;2023-04-01T03:55:31;18.10;49.50
48806;DHT22;34625;47.176;27.548;2023-04-01T03:57:57;18.10;49.50
48806;DHT22;34625;47.176;27.548;2023-04-01T04:00:23;18.10;49.50
48806;DHT22;34625;47.176;27.548;2023-04-01T04:02:54;18.00;49.50
48806;DHT22;34625;47.176;27.548;2023-04-01T04:05:26;18.10;49.60
48806;DHT22;34625;47.176;27.548;2023-04-01T04:07:53;18.00;49.50
48806;DHT22;34625;47.176;27.548;2023-04-01T04:10:19;18.10;49.60
48806;DHT22;34625;47.176;27.548;2023-04-01T04:12:45;18.10;49.60
48806;DHT22;34625;47.176;27.548;2023-04-01T04:15:11;18.10;49.60
48806;DHT22;34625;47.176;27.548;2023-04-01T04:17:37;18.10;49.50
48806;DHT22;34625;47.176;27.548;2023-04-01T04:20:04;18.00;49.40
48806;DHT22;34625;47.176;27.548;2023-04-01T04:22:30;18.10;49.50
48806;DHT22;34625;47.176;27.548;2023-04-01T04:24:56;18.10;49.50
48806;DHT22;34625;47.176;27.548;2023-04-01T04:27:22;18.10;49.50
48806;DHT22;34625;47.176;27.548;2023-04-01T04:30:05;18.10;49.60
48806;DHT22;34625;47.176;27.548;2023-04-01T04:32:31;18.00;49.50
48806;DHT22;34625;47.176;27.548;2023-04-01T04:34:57;18.10;49.70
48806;DHT22;34625;47.176;27.548;2023-04-01T04:37:23;18.10;49.70
48806;DHT22;34625;47.176;27.548;2023-04-01T04:39:51;18.20;49.60
48806;DHT22;34625;47.176;27.548;2023-04-01T04:42:17;18.20;49.40
48806;DHT22;34625;47.176;27.548;2023-04-01T04:44:43;18.10;49.40
48806;DHT22;34625;47.176;27.548;2023-04-01T04:47:10;18.10;49.40
48806;DHT22;34625;47.176;27.548;2023-04-01T04:49:36;18.10;49.30
48806;DHT22;34625;47.176;27.548;2023-04-01T04:52:06;18.20;49.40
48806;DHT22;34625;47.176;27.548;2023-04-01T04:54:32;18.20;49.30
48806;DHT22;34625;47.176;27.548;2023-04-01T04:57:00;18.10;49.40
48806;DHT22;34625;47.176;27.548;2023-04-01T04:59:30;18.10;49.50
48806;DHT22;34625;47.176;27.548;2023-04-01T05:02:12;18.10;49.50
48806;DHT22;34625;47.176;27.548;2023-04-01T05:04:38;18.20;49.70
48806;DHT22;34625;47.176;27.548;2023-04-01T05:07:08;18.00;49.60
48806;DHT22;34625;47.176;27.548;2023-04-01T05:09:33;18.10;49.70
48806;DHT22;34625;47.176;27.548;2023-04-01T05:12:00;18.20;49.60
48806;DHT22;34625;47.176;27.548;2023-04-01T05:14:31;18.20;49.50
48806;DHT22;34625;47.176;27.548;2023-04-01T05:17:07;18.30;49.50
48806;DHT22;34625;47.176;27.548;2023-04-01T05:19:34;18.30;49.40
48806;DHT22;34625;47.176;27.548;2023-04-01T05:21:59;18.30;49.40
48806;DHT22;34625;47.176;27.548;2023-04-01T05:24:25;18.40;49.40
48806;DHT22;34625;47.176;27.548;2023-04-01T05:26:51;18.30;49.10
48806;DHT22;34625;47.176;27.548;2023-04-01T05:29:17;18.30;49.10
48806;DHT22;34625;47.176;27.548;2023-04-01T05:31:46;18.30;49.00
48806;DHT22;34625;47.176;27.548;2023-04-01T05:34:12;18.30;49.10
48806;DHT22;34625;47.176;27.548;2023-04-01T05:36:38;18.40;49.10
48806;DHT22;34625;47.176;27.548;2023-04-01T05:39:04;18.30;49.00
48806;DHT22;34625;47.176;27.548;2023-04-01T05:41:30;18.50;48.90
48806;DHT22;34625;47.176;27.548;2023-04-01T05:43:56;18.40;48.90
48806;DHT22;34625;47.176;27.548;2023-04-01T05:46:41;18.50;48.90
48806;DHT22;34625;47.176;27.548;2023-04-01T05:49:16;18.30;49.00
48806;DHT22;34625;47.176;27.548;2023-04-01T05:51:42;18.30;49.00
48806;DHT22;34625;47.176;27.548;2023-04-01T05:54:08;18.40;48.90
48806;DHT22;34625;47.176;27.548;2023-04-01T05:56:35;18.40;48.70
48806;DHT22;34625;47.176;27.548;2023-04-01T05:59:01;18.40;48.70
48806;DHT22;34625;47.176;27.548;2023-04-01T06:01:27;18.40;48.70
48806;DHT22;34625;47.176;27.548;2023-04-01T06:03:53;18.50;48.90
48806;DHT22;34625;47.176;27.548;2023-04-01T06:06:28;18.30;48.80
48806;DHT22;34625;47.176;27.548;2023-04-01T06:09:07;18.40;48.70
48806;DHT22;34625;47.176;27.548;2023-04-01T06:12:01;18.50;48.80
48806;DHT22;34625;47.176;27.548;2023-04-01T06:19:36;18.40;48.40
48806;DHT22;34625;47.176;27.548;2023-04-01T06:46:18;18.50;48.80
48806;DHT22;34625;47.176;27.548;2023-04-01T06:49:07;18.60;48.70
48806;DHT22;34625;47.176;27.548;2023-04-01T06:54:59;18.50;48.70
48806;DHT22;34625;47.176;27.548;2023-04-01T06:58:00;18.60;48.60
48806;DHT22;34625;47.176;27.548;2023-04-01T07:03:16;18.60;48.60
48806;DHT22;34625;47.176;27.548;2023-04-01T07:05:45;18.60;48.60
48806;DHT22;34625;47.176;27.548;2023-04-01T07:08:28;18.70;48.80
48806;DHT22;34625;47.176;27.548;2023-04-01T07:11:02;18.70;48.70
48806;DHT22;34625;47.176;27.548;2023-04-01T07:13:49;18.60;48.60
48806;DHT22;34625;47.176;27.548;2023-04-01T07:19:12;18.70;48.70
48806;DHT22;34625;47.176;27.548;2023-04-01T07:22:03;18.60;48.60
48806;DHT22;34625;47.176;27.548;2023-04-01T07:24:49;18.60;48.60
48806;DHT22;34625;47.176;27.548;2023-04-01T07:27:15;18.60;48.60
48806;DHT22;34625;47.176;27.548;2023-04-01T07:29:43;18.60;48.60
48806;DHT22;34625;47.176;27.548;2023-04-01T07:32:14;18.60;48.60
48806;DHT22;34625;47.176;27.548;2023-04-01T07:45:14;18.50;48.80
48806;DHT22;34625;47.176;27.548;2023-04-01T07:47:45;18.70;48.90
48806;DHT22;34625;47.176;27.548;2023-04-01T07:50:29;18.50;48.80
48806;DHT22;34625;47.176;27.548;2023-04-01T07:55:42;18.60;48.60
48806;DHT22;34625;47.176;27.548;2023-04-01T08:00:49;18.60;48.60
48806;DHT22;34625;47.176;27.548;2023-04-01T08:08:46;18.60;48.40
48806;DHT22;34625;47.176;27.548;2023-04-01T08:14:30;18.60;48.40
48806;DHT22;34625;47.176;27.548;2023-04-01T08:17:17;18.60;48.50
48806;DHT22;34625;47.176;27.548;2023-04-01T08:22:43;18.80;48.60
48806;DHT22;34625;47.176;27.548;2023-04-01T08:25:25;18.70;48.40
48806;DHT22;34625;47.176;27.548;2023-04-01T08:27:57;18.90;48.40
48806;DHT22;34625;47.176;27.548;2023-04-01T08:30:33;18.90;48.30
48806;DHT22;34625;47.176;27.548;2023-04-01T08:33:05;18.80;48.00
48806;DHT22;34625;47.176;27.548;2023-04-01T08:35:39;18.90;48.00
48806;DHT22;34625;47.176;27.548;2023-04-01T08:38:10;18.90;48.10
48806;DHT22;34625;47.176;27.548;2023-04-01T08:46:03;18.80;48.40
48806;DHT22;34625;47.176;27.548;2023-04-01T08:51:20;18.80;48.40
48806;DHT22;34625;47.176;27.548;2023-04-01T09:04:53;18.70;48.50
48806;DHT22;34625;47.176;27.548;2023-04-01T09:17:47;18.70;48.60
48806;DHT22;34625;47.176;27.548;2023-04-01T09:20:18;18.70;48.80
48806;DHT22;34625;47.176;27.548;2023-04-01T09:27:49;18.80;48.60
48806;DHT22;34625;47.176;27.548;2023-04-01T09:35:47;18.70;48.70
48806;DHT22;34625;47.176;27.548;2023-04-01T09:40:48;18.60;48.80
48806;DHT22;34625;47.176;27.548;2023-04-01T09:43:30;18.60;48.90
48806;DHT22;34625;47.176;27.548;2023-04-01T09:50:55;18.80;49.00
48806;DHT22;34625;47.176;27.548;2023-04-01T09:53:29;18.80;49.00
48806;DHT22;34625;47.176;27.548;2023-04-01T10:50:04;18.80;48.80
48806;DHT22;34625;47.176;27.548;2023-04-01T11:01:44;19.00;48.70
48806;DHT22;34625;47.176;27.548;2023-04-01T11:23:33;19.00;48.70
48806;DHT22;34625;47.176;27.548;2023-04-01T11:29:13;19.00;48.50
48806;DHT22;34625;47.176;27.548;2023-04-01T11:34:12;19.10;48.60
48806;DHT22;34625;47.176;27.548;2023-04-01T11:36:51;19.10;48.50
48806;DHT22;34625;47.176;27.548;2023-04-01T12:06:08;19.20;48.10
48806;DHT22;34625;47.176;27.548;2023-04-01T12:08:40;19.10;48.00
48806;DHT22;34625;47.176;27.548;2023-04-01T12:11:17;19.10;48.00
48806;DHT22;34625;47.176;27.548;2023-04-01T12:13:53;19.10;48.00
48806;DHT22;34625;47.176;27.548;2023-04-01T12:18:55;19.10;48.10
48806;DHT22;34625;47.176;27.548;2023-04-01T12:24:29;19.20;48.10
48806;DHT22;34625;47.176;27.548;2023-04-01T12:42:36;18.90;48.30
48806;DHT22;34625;47.176;27.548;2023-04-01T12:45:11;19.10;48.60
48806;DHT22;34625;47.176;27.548;2023-04-01T12:47:55;18.90;48.50
48806;DHT22;34625;47.176;27.548;2023-04-01T12:53:01;18.90;48.80
48806;DHT22;34625;47.176;27.548;2023-04-01T12:55:36;19.10;48.80
48806;DHT22;34625;47.176;27.548;2023-04-01T13:00:38;19.10;48.70
48806;DHT22;34625;47.176;27.548;2023-04-01T13:05:50;19.10;48.60
48806;DHT22;34625;47.176;27.548;2023-04-01T13:11:06;19.10;48.40
48806;DHT22;34625;47.176;27.548;2023-04-01T13:13:44;19.20;48.20
48806;DHT22;34625;47.176;27.548;2023-04-01T13:26:22;19.20;48.50
48806;DHT22;34625;47.176;27.548;2023-04-01T13:28:53;19.20;48.50
48806;DHT22;34625;47.176;27.548;2023-04-01T13:33:49;19.10;48.40
48806;DHT22;34625;47.176;27.548;2023-04-01T13:43:49;19.10;48.60
48806;DHT22;34625;47.176;27.548;2023-04-01T14:01:29;19.10;49.10
48806;DHT22;34625;47.176;27.548;2023-04-01T14:11:39;19.20;48.90
48806;DHT22;34625;47.176;27.548;2023-04-01T14:47:54;20.00;48.30
48806;DHT22;34625;47.176;27.548;2023-04-01T14:50:23;20.00;48.00
48806;DHT22;34625;47.176;27.548;2023-04-01T14:58:15;20.10;47.90
48806;DHT22;34625;47.176;27.548;2023-04-01T15:00:47;20.30;48.10
48806;DHT22;34625;47.176;27.548;2023-04-01T15:06:14;20.20;47.50
48806;DHT22;34625;47.176;27.548;2023-04-01T15:08:32;20.40;47.60
48806;DHT22;34625;47.176;27.548;2023-04-01T15:13:45;20.50;47.60
48806;DHT22;34625;47.176;27.548;2023-04-01T15:21:18;20.50;47.20
48806;DHT22;34625;47.176;27.548;2023-04-01T15:44:50;20.70;46.70
48806;DHT22;34625;47.176;27.548;2023-04-01T16:21:05;21.10;46.10
48806;DHT22;34625;47.176;27.548;2023-04-01T16:23:46;21.30;46.10
48806;DHT22;34625;47.176;27.548;2023-04-01T16:26:32;21.20;45.90
48806;DHT22;34625;47.176;27.548;2023-04-01T16:31:38;21.30;46.10
48806;DHT22;34625;47.176;27.548;2023-04-01T16:36:51;21.20;45.90
48806;DHT22;34625;47.176;27.548;2023-04-01T16:45:06;21.20;46.00
48806;DHT22;34625;47.176;27.548;2023-04-01T16:47:34;21.50;46.30
48806;DHT22;34625;47.176;27.548;2023-04-01T16:50:15;21.50;46.00
48806;DHT22;34625;47.176;27.548;2023-04-01T16:58:14;21.50;46.40
48806;DHT22;34625;47.176;27.548;2023-04-01T17:00:51;21.50;46.10
48806;DHT22;34625;47.176;27.548;2023-04-01T17:08:27;21.70;46.30
48806;DHT22;34625;47.176;27.548;2023-04-01T17:13:29;21.50;46.60
48806;DHT22;34625;47.176;27.548;2023-04-01T17:18:58;21.70;47.00
48806;DHT22;34625;47.176;27.548;2023-04-01T17:21:38;21.70;47.20
48806;DHT22;34625;47.176;27.548;2023-04-01T17:26:54;21.90;48.70
48806;DHT22;34625;47.176;27.548;2023-04-01T17:34:46;21.90;50.20
48806;DHT22;34625;47.176;27.548;2023-04-01T17:37:25;22.00;49.80
48806;DHT22;34625;47.176;27.548;2023-04-01T17:40:12;22.00;50.20
48806;DHT22;34625;47.176;27.548;2023-04-01T17:42:48;22.00;49.30
48806;DHT22;34625;47.176;27.548;2023-04-01T17:51:05;22.00;49.90
48806;DHT22;34625;47.176;27.548;2023-04-01T17:58:41;22.00;49.40
48806;DHT22;34625;47.176;27.548;2023-04-01T18:01:21;22.20;49.90
48806;DHT22;34625;47.176;27.548;2023-04-01T18:09:19;22.30;49.70
48806;DHT22;34625;47.176;27.548;2023-04-01T18:17:17;22.30;49.50
48806;DHT22;34625;47.176;27.548;2023-04-01T18:22:29;22.20;49.40
48806;DHT22;34625;47.176;27.548;2023-04-01T18:27:52;22.40;49.40
48806;DHT22;34625;47.176;27.548;2023-04-01T18:30:26;22.50;49.30
48806;DHT22;34625;47.176;27.548;2023-04-01T18:32:58;22.70;49.30
48806;DHT22;34625;47.176;27.548;2023-04-01T18:40:20;22.50;49.60
48806;DHT22;34625;47.176;27.548;2023-04-01T18:55:42;22.70;50.70
48806;DHT22;34625;47.176;27.548;2023-04-01T19:03:33;22.80;50.80
48806;DHT22;34625;47.176;27.548;2023-04-01T19:06:06;22.70;50.80
48806;DHT22;34625;47.176;27.548;2023-04-01T19:08:39;22.70;50.50
48806;DHT22;34625;47.176;27.548;2023-04-01T19:11:20;22.80;51.20
48806;DHT22;34625;47.176;27.548;2023-04-01T19:21:42;22.80;52.00
48806;DHT22;34625;47.176;27.548;2023-04-01T19:37:08;22.80;52.70
48806;DHT22;34625;47.176;27.548;2023-04-01T19:42:14;22.90;51.90
48806;DHT22;34625;47.176;27.548;2023-04-01T19:52:09;23.00;56.00
48806;DHT22;34625;47.176;27.548;2023-04-01T19:57:22;22.90;58.30
48806;DHT22;34625;47.176;27.548;2023-04-01T19:59:56;23.10;59.10
48806;DHT22;34625;47.176;27.548;2023-04-01T20:04:56;23.00;56.20
48806;DHT22;34625;47.176;27.548;2023-04-01T20:07:33;23.00;57.50
48806;DHT22;34625;47.176;27.548;2023-04-01T20:14:56;23.00;55.80
48806;DHT22;34625;47.176;27.548;2023-04-01T20:17:23;23.10;56.20
48806;DHT22;34625;47.176;27.548;2023-04-01T20:22:37;23.00;55.70
48806;DHT22;34625;47.176;27.548;2023-04-01T20:25:15;23.10;56.00
48806;DHT22;34625;47.176;27.548;2023-04-01T20:36:11;23.10;55.20
48806;DHT22;34625;47.176;27.548;2023-04-01T20:44:13;23.20;54.90
48806;DHT22;34625;47.176;27.548;2023-04-01T20:49:13;23.20;54.60
48806;DHT22;34625;47.176;27.548;2023-04-01T20:51:53;23.20;54.80
48806;DHT22;34625;47.176;27.548;2023-04-01T21:05:22;23.40;54.50
48806;DHT22;34625;47.176;27.548;2023-04-01T21:12:53;23.50;54.60
48806;DHT22;34625;47.176;27.548;2023-04-01T21:22:48;23.50;54.70
48806;DHT22;34625;47.176;27.548;2023-04-01T21:39:01;23.20;54.60
48806;DHT22;34625;47.176;27.548;2023-04-01T21:46:36;23.20;54.80
48806;DHT22;34625;47.176;27.548;2023-04-01T22:07:04;23.10;55.40
48806;DHT22;34625;47.176;27.548;2023-04-01T22:09:38;23.20;55.30
48806;DHT22;34625;47.176;27.548;2023-04-01T22:12:19;23.20;55.20
48806;DHT22;34625;47.176;27.548;2023-04-01T22:17:32;23.00;55.10
48806;DHT22;34625;47.176;27.548;2023-04-01T22:25:31;23.00;55.10
48806;DHT22;34625;47.176;27.548;2023-04-01T22:31:00;23.10;55.10
48806;DHT22;34625;47.176;27.548;2023-04-01T22:41:02;23.10;55.10
48806;DHT22;34625;47.176;27.548;2023-04-01T22:43:37;23.00;54.80
48806;DHT22;34625;47.176;27.548;2023-04-01T22:46:19;23.00;54.90
48806;DHT22;34625;47.176;27.548;2023-04-01T22:48:50;23.10;55.00
48806;DHT22;34625;47.176;27.548;2023-04-01T22:51:40;23.10;54.90
48806;DHT22;34625;47.176;27.548;2023-04-01T22:54:13;23.00;54.80
48806;DHT22;34625;47.176;27.548;2023-04-01T22:56:41;23.00;55.00
48806;DHT22;34625;47.176;27.548;2023-04-01T22:59:19;22.90;55.00
48806;DHT22;34625;47.176;27.548;2023-04-01T23:01:56;22.80;55.00
48806;DHT22;34625;47.176;27.548;2023-04-01T23:04:29;22.80;55.10
48806;DHT22;34625;47.176;27.548;2023-04-01T23:06:57;22.80;55.10
48806;DHT22;34625;47.176;27.548;2023-04-01T23:09:27;22.80;55.30
48806;DHT22;34625;47.176;27.548;2023-04-01T23:17:17;22.80;55.60
48806;DHT22;34625;47.176;27.548;2023-04-01T23:29:56;22.70;55.30
48806;DHT22;34625;47.176;27.548;2023-04-01T23:32:22;22.70;55.30
48806;DHT22;34625;47.176;27.548;2023-04-01T23:34:52;22.70;55.20
48806;DHT22;34625;47.176;27.548;2023-04-01T23:37:19;22.70;55.20
48806;DHT22;34625;47.176;27.548;2023-04-01T23:39:46;22.80;55.10
48806;DHT22;34625;47.176;27.548;2023-04-01T23:42:26;22.90;55.30
48806;DHT22;34625;47.176;27.548;2023-04-01T23:44:57;22.90;55.20
48806;DHT22;34625;47.176;27.548;2023-04-01T23:47:24;22.70;55.10
48806;DHT22;34625;47.176;27.548;2023-04-01T23:49:51;22.80;55.20
48806;DHT22;34625;47.176;27.548;2023-04-01T23:52:23;22.70;55.20
48806;DHT22;34625;47.176;27.548;2023-04-01T23:55:00;22.70;55.30
48806;DHT22;34625;47.176;27.548;2023-04-01T23:57:29;22.60;55.30
